createdAt,value
2023-04-29T00:00:27.764Z,64.79
2023-04-29T00:04:40.521Z,64.59
2023-04-29T00:08:53.539Z,64.49
2023-04-29T00:13:06.019Z,65.97
2023-04-29T00:17:18.719Z,65.26
2023-04-29T00:21:32.208Z,66.10
2023-04-29T00:25:44.655Z,65.62
2023-04-29T00:29:57.781Z,65.68
2023-04-29T00:34:10.192Z,65.45
2023-04-29T00:38:22.657Z,65.26
2023-04-29T00:42:36.153Z,65.94
2023-04-29T00:46:48.661Z,65.10
2023-04-29T00:51:03.117Z,64.78
2023-04-29T00:55:15.796Z,65.47
2023-04-29T00:59:32.748Z,65.29
2023-04-29T01:03:46.887Z,65.59
2023-04-29T01:08:38.344Z,65.65
2023-04-29T01:12:54.987Z,65.36
2023-04-29T01:17:16.088Z,64.76
2023-04-29T01:21:28.539Z,65.34
2023-04-29T01:25:41.046Z,64.70
2023-04-29T01:30:11.006Z,64.90
2023-04-29T01:34:31.325Z,64.46
2023-04-29T01:39:00.932Z,63.92
2023-04-29T01:43:16.142Z,63.43
2023-04-29T01:47:33.413Z,62.88
2023-04-29T01:51:46.516Z,61.47
2023-04-29T01:55:59.318Z,61.93
2023-04-29T02:00:15.312Z,62.08
2023-04-29T02:04:34.724Z,61.62
2023-04-29T02:08:48.828Z,61.85
2023-04-29T02:13:02.992Z,62.42
2023-04-29T02:17:15.741Z,61.54
2023-04-29T02:21:29.253Z,61.26
2023-04-29T02:25:41.659Z,61.45
2023-04-29T02:29:54.492Z,61.67
2023-04-29T02:34:06.980Z,61.62
2023-04-29T02:38:21.568Z,61.31
2023-04-29T02:42:33.996Z,61.32
2023-04-29T02:46:46.832Z,60.48
2023-04-29T02:50:59.161Z,60.00
2023-04-29T02:55:11.648Z,58.83
2023-04-29T02:59:24.065Z,59.45
2023-04-29T03:03:36.675Z,59.57
2023-04-29T03:07:49.176Z,59.81
2023-04-29T03:12:03.251Z,58.56
2023-04-29T03:16:17.284Z,59.21
2023-04-29T03:20:29.849Z,59.04
2023-04-29T03:24:42.337Z,60.15
2023-04-29T03:28:54.715Z,59.39
2023-04-29T03:33:07.179Z,60.44
2023-04-29T03:37:19.586Z,60.73
2023-04-29T03:41:39.124Z,59.92
2023-04-29T03:45:51.807Z,59.56
2023-04-29T03:50:08.753Z,59.58
2023-04-29T03:54:23.649Z,60.18
2023-04-29T03:58:36.523Z,60.56
2023-04-29T04:02:49.355Z,60.05
2023-04-29T04:07:02.153Z,59.62
2023-04-29T04:11:22.734Z,59.33
2023-04-29T04:15:42.686Z,60.02
2023-04-29T04:19:55.289Z,59.26
2023-04-29T04:24:07.701Z,58.84
2023-04-29T04:28:20.168Z,58.42
2023-04-29T04:32:42.758Z,59.62
2023-04-29T04:36:55.414Z,58.70
2023-04-29T04:41:09.787Z,57.54
2023-04-29T04:45:24.112Z,57.92
2023-04-29T04:49:38.709Z,57.80
2023-04-29T04:53:52.189Z,58.14
2023-04-29T04:58:06.688Z,59.17
2023-04-29T05:02:19.709Z,57.00
2023-04-29T05:06:32.410Z,55.22
2023-04-29T05:10:45.631Z,51.51
2023-04-29T05:14:58.888Z,51.20
2023-04-29T05:19:13.187Z,52.12
2023-04-29T05:23:26.457Z,52.06
2023-04-29T05:27:40.345Z,50.71
2023-04-29T05:31:56.624Z,52.10
2023-04-29T05:36:09.675Z,51.65
2023-04-29T05:40:23.600Z,50.97
2023-04-29T05:44:38.186Z,51.27
2023-04-29T05:48:51.988Z,50.29
2023-04-29T05:53:04.990Z,50.60
2023-04-29T05:57:17.686Z,49.28
2023-04-29T06:01:30.078Z,47.02
2023-04-29T06:05:44.303Z,47.02
2023-04-29T06:10:15.659Z,44.85
2023-04-29T06:14:30.262Z,44.50
2023-04-29T06:18:42.796Z,43.68
2023-04-29T06:22:55.230Z,49.60
2023-04-29T06:27:07.627Z,46.39
2023-04-29T06:31:21.799Z,47.20
2023-04-29T06:35:41.083Z,45.55
2023-04-29T06:40:13.771Z,43.20
2023-04-29T06:44:46.453Z,42.25
2023-04-29T06:49:13.535Z,41.44
2023-04-29T06:53:26.580Z,40.28
2023-04-29T06:57:38.972Z,38.63
2023-04-29T07:01:52.590Z,40.13
2023-04-29T07:06:05.473Z,36.63
2023-04-29T07:10:17.917Z,37.46
2023-04-29T07:14:30.350Z,33.15
2023-04-29T07:18:43.005Z,31.92
2023-04-29T07:22:55.405Z,31.17
2023-04-29T07:27:07.883Z,30.87
2023-04-29T07:31:22.041Z,30.17
2023-04-29T07:35:34.534Z,31.71
2023-04-29T07:39:46.849Z,27.70
2023-04-29T07:43:59.342Z,28.64
2023-04-29T07:48:11.958Z,30.13
2023-04-29T07:52:24.265Z,29.83
2023-04-29T07:56:36.860Z,28.62
2023-04-29T08:00:49.315Z,28.25
2023-04-29T08:05:03.443Z,29.04
2023-04-29T08:09:16.917Z,28.71
2023-04-29T08:13:29.491Z,27.27
2023-04-29T08:17:42.308Z,26.88
2023-04-29T08:21:55.026Z,26.68
2023-04-29T08:26:07.427Z,29.34
2023-04-29T08:30:20.052Z,29.09
2023-04-29T08:34:34.034Z,28.41
2023-04-29T08:38:49.202Z,28.27
2023-04-29T08:43:02.046Z,25.75
2023-04-29T08:47:16.614Z,26.06
2023-04-29T08:51:29.048Z,26.21
2023-04-29T08:55:44.054Z,26.36
2023-04-29T08:59:56.575Z,24.83
2023-04-29T09:04:30.851Z,25.19
2023-04-29T09:08:43.537Z,25.05
2023-04-29T09:13:01.640Z,24.04
2023-04-29T09:17:16.488Z,23.42
2023-04-29T09:21:29.918Z,25.29
2023-04-29T09:25:42.399Z,25.95
2023-04-29T09:30:03.788Z,25.77
2023-04-29T09:34:16.857Z,23.80
2023-04-29T09:38:29.339Z,24.71
2023-04-29T09:42:44.813Z,25.02
2023-04-29T09:47:03.317Z,26.58
2023-04-29T09:51:16.256Z,26.60
2023-04-29T09:55:29.839Z,24.57
2023-04-29T09:59:43.313Z,22.89
2023-04-29T10:03:56.634Z,20.87
2023-04-29T10:08:10.055Z,22.15
2023-04-29T10:12:23.991Z,23.36
2023-04-29T10:16:49.863Z,25.21
2023-04-29T10:21:03.853Z,25.17
2023-04-29T10:25:18.838Z,26.21
2023-04-29T10:29:35.356Z,25.27
2023-04-29T10:33:48.706Z,24.16
2023-04-29T10:38:06.416Z,25.64
2023-04-29T10:42:34.308Z,26.30
2023-04-29T10:46:46.803Z,25.87
2023-04-29T10:50:59.298Z,27.67
2023-04-29T10:55:12.979Z,27.72
2023-04-29T10:59:34.408Z,27.77
2023-04-29T11:04:00.589Z,27.99
2023-04-29T11:08:16.741Z,28.75
2023-04-29T11:12:29.218Z,29.00
2023-04-29T11:16:49.874Z,29.38
2023-04-29T11:21:05.143Z,27.86
2023-04-29T11:25:18.124Z,29.66
2023-04-29T11:29:33.152Z,29.36
2023-04-29T11:33:47.183Z,28.96
2023-04-29T11:38:00.764Z,28.14
2023-04-29T11:42:13.260Z,29.72
2023-04-29T11:46:26.605Z,30.48
2023-04-29T11:50:42.302Z,33.35
2023-04-29T11:54:55.060Z,32.58
2023-04-29T11:59:08.450Z,31.45
2023-04-29T12:03:22.350Z,30.19
2023-04-29T12:07:36.801Z,32.27
2023-04-29T12:11:53.133Z,33.67
2023-04-29T12:16:06.429Z,36.36
2023-04-29T12:20:18.955Z,36.88
2023-04-29T12:24:38.761Z,36.50
2023-04-29T12:28:55.796Z,37.54
2023-04-29T12:33:11.706Z,37.12
2023-04-29T12:37:24.225Z,37.33
2023-04-29T12:41:43.225Z,36.55
2023-04-29T12:46:05.114Z,35.83
2023-04-29T12:50:17.626Z,35.41
2023-04-29T12:54:31.004Z,37.48
2023-04-29T12:58:43.354Z,37.85
2023-04-29T13:02:56.724Z,37.79
2023-04-29T13:07:09.271Z,39.62
2023-04-29T13:11:21.778Z,42.33
2023-04-29T13:15:34.300Z,44.56
2023-04-29T13:19:51.745Z,43.83
2023-04-29T13:24:04.764Z,45.17
2023-04-29T13:28:17.548Z,47.82
2023-04-29T13:32:43.270Z,46.44
2023-04-29T13:36:58.548Z,50.64
2023-04-29T13:41:16.784Z,49.98
2023-04-29T13:45:30.453Z,48.77
2023-04-29T13:50:09.952Z,49.33
2023-04-29T13:59:08.618Z,54.75
2023-04-29T14:03:09.514Z,58.95
2023-04-29T14:07:23.500Z,61.84
2023-04-29T14:11:37.047Z,63.30
2023-04-29T14:15:49.673Z,59.66
2023-04-29T14:20:02.200Z,56.50
2023-04-29T14:24:14.542Z,58.11
2023-04-29T14:28:26.886Z,58.38
2023-04-29T14:32:39.276Z,58.56
2023-04-29T14:36:51.682Z,55.82
2023-04-29T14:41:04.168Z,57.28
2023-04-29T14:45:17.496Z,60.82
2023-04-29T14:49:31.547Z,61.03
2023-04-29T14:53:44.282Z,57.96
2023-04-29T14:57:57.007Z,57.89
2023-04-29T15:02:09.363Z,58.49
2023-04-29T15:06:21.878Z,58.66
2023-04-29T15:10:34.531Z,58.24
2023-04-29T15:14:47.815Z,58.42
2023-04-29T15:19:01.246Z,60.82
2023-04-29T15:23:14.408Z,57.92
2023-04-29T15:27:27.030Z,57.78
2023-04-29T15:31:39.779Z,57.15
2023-04-29T15:35:52.371Z,58.43
2023-04-29T15:40:05.527Z,59.07
2023-04-29T15:44:17.951Z,58.52
2023-04-29T15:48:30.343Z,58.43
2023-04-29T15:52:42.822Z,58.75
2023-04-29T15:56:55.922Z,59.69
2023-04-29T16:01:08.587Z,59.56
2023-04-29T16:05:21.330Z,60.29
2023-04-29T16:09:34.488Z,60.58
2023-04-29T16:13:46.778Z,61.46
2023-04-29T16:18:00.080Z,61.96
2023-04-29T16:22:12.479Z,61.60
2023-04-29T16:26:25.855Z,60.13
2023-04-29T16:30:38.262Z,60.25
2023-04-29T16:34:51.207Z,61.29
2023-04-29T16:39:04.949Z,59.64
2023-04-29T16:43:18.196Z,60.73
2023-04-29T16:47:30.724Z,60.56
2023-04-29T16:51:43.164Z,59.90
2023-04-29T16:55:55.933Z,59.71
2023-04-29T17:00:12.468Z,60.41
2023-04-29T17:04:25.084Z,59.21
2023-04-29T17:08:37.719Z,59.08
2023-04-29T17:12:50.252Z,60.38
2023-04-29T17:17:02.713Z,59.49
2023-04-29T17:21:15.678Z,58.55
2023-04-29T17:25:28.103Z,59.08
2023-04-29T17:29:40.685Z,60.96
2023-04-29T17:34:05.470Z,60.05
2023-04-29T17:38:18.154Z,61.32
2023-04-29T17:42:30.722Z,63.70
2023-04-29T17:46:43.326Z,61.74
2023-04-29T17:50:55.866Z,61.35
2023-04-29T17:55:08.609Z,60.57
2023-04-29T17:59:21.412Z,63.42
2023-04-29T18:03:33.906Z,61.77
2023-04-29T18:07:46.541Z,60.85
2023-04-29T18:11:58.873Z,60.84
2023-04-29T18:16:11.478Z,61.41
2023-04-29T18:20:24.178Z,61.51
2023-04-29T18:24:36.665Z,60.96
2023-04-29T18:28:49.683Z,61.29
2023-04-29T18:33:02.457Z,61.04
2023-04-29T18:37:15.000Z,61.37
2023-04-29T18:41:28.119Z,61.95
2023-04-29T18:45:40.663Z,62.23
2023-04-29T18:49:53.452Z,63.55
2023-04-29T18:54:06.505Z,62.48
2023-04-29T18:58:20.772Z,62.89
2023-04-29T19:02:33.252Z,62.55
2023-04-29T19:06:45.775Z,63.11
2023-04-29T19:11:00.545Z,62.92
2023-04-29T19:15:13.707Z,64.28
2023-04-29T19:19:26.702Z,67.12
2023-04-29T19:23:39.296Z,69.50
2023-04-29T19:27:52.339Z,71.22
2023-04-29T19:32:04.838Z,72.26
2023-04-29T19:36:17.666Z,70.35
2023-04-29T19:40:30.060Z,70.75
2023-04-29T19:44:42.933Z,69.78
2023-04-29T19:48:55.363Z,69.78
2023-04-29T19:53:07.865Z,69.29
2023-04-29T19:57:20.419Z,68.77
2023-04-29T20:01:32.915Z,69.09
2023-04-29T20:05:45.257Z,69.01
2023-04-29T20:09:57.642Z,70.25
2023-04-29T20:14:10.256Z,70.63
2023-04-29T20:18:22.923Z,71.28
2023-04-29T20:22:36.051Z,72.12
2023-04-29T20:26:48.429Z,72.94
2023-04-29T20:31:00.912Z,72.73
2023-04-29T20:35:13.711Z,73.29
2023-04-29T20:39:26.304Z,74.62
2023-04-29T20:43:38.784Z,74.25
2023-04-29T20:47:51.211Z,75.35
2023-04-29T20:52:06.586Z,75.01
2023-04-29T20:56:19.097Z,75.30
2023-04-29T21:00:31.529Z,75.44
2023-04-29T21:04:43.927Z,75.48
2023-04-29T21:08:56.330Z,75.15
2023-04-29T21:13:08.731Z,74.99
2023-04-29T21:17:21.386Z,74.62
2023-04-29T21:21:33.764Z,73.93
2023-04-29T21:25:46.441Z,73.34
2023-04-29T21:29:58.879Z,72.75
2023-04-29T21:34:11.357Z,73.20
2023-04-29T21:38:23.875Z,73.41
2023-04-29T21:42:36.596Z,72.67
2023-04-29T21:46:49.340Z,73.46
2023-04-29T21:51:05.395Z,73.94
2023-04-29T21:55:17.964Z,73.97
2023-04-29T21:59:34.647Z,74.97
2023-04-29T22:03:47.135Z,75.61
2023-04-29T22:08:01.293Z,76.00
2023-04-29T22:12:13.722Z,73.04
2023-04-29T22:16:26.273Z,73.61
2023-04-29T22:20:39.036Z,75.16
2023-04-29T22:24:51.511Z,76.21
2023-04-29T22:29:04.020Z,74.22
2023-04-29T22:33:16.588Z,74.60
2023-04-29T22:37:29.216Z,75.23
2023-04-29T22:41:41.708Z,75.06
2023-04-29T22:45:55.183Z,74.62
2023-04-29T22:50:08.189Z,74.82
2023-04-29T22:54:20.571Z,74.85
2023-04-29T22:58:34.057Z,75.45
2023-04-29T23:02:46.476Z,75.96
2023-04-29T23:06:59.012Z,75.65
2023-04-29T23:11:12.428Z,75.77
2023-04-29T23:15:26.055Z,76.12
2023-04-29T23:19:38.729Z,75.05
2023-04-29T23:23:51.185Z,75.54
2023-04-29T23:28:03.570Z,76.42
2023-04-29T23:32:16.140Z,77.18
2023-04-29T23:36:28.593Z,77.12
2023-04-29T23:40:41.067Z,78.51
2023-04-29T23:44:53.488Z,78.37
2023-04-29T23:49:05.945Z,80.54
2023-04-29T23:53:18.926Z,81.18
2023-04-29T23:57:31.368Z,82.28
